Pahoa, HI (96778)

6:17 PM HST on December 05, 2016 (GMT -1000)
Hawaiian Shores Rec. (Malolo St.) | | Change Station

Elev 217 ft 19.54 °N, 154.90 °W | Updated 13 seconds ago

Mostly Cloudy
Mostly Cloudy
91.2 °F
Feels Like 131 °F
N
0.0
Wind Variable Wind from ESE
Gusts 0.0 mph

Today
High -- | Low -- °F
--% Chance of Precip.
Yesterday
High -- | Low -- °F
Precip. -- in
Pressure 29.92 in
Visibility 10.0 miles
Clouds Mostly Cloudy 3400 ft
Mostly Cloudy 4600 ft
Heat Index 131 °F
Dew Point 89 °F
Humidity 93%
Rainfall in
Snow Depth Not available.
6:40 AM 5:40 PM
Waxing Crescent, 37% visible
METAR PHTO 060353Z 00000KT 10SM BKN034 BKN046 23/21 A2992 RMK AO2 SLP131 T02280206
Pressure 29.92 in
Visibility 10.0 miles
Clouds Mostly Cloudy 3400 ft
Mostly Cloudy 4600 ft
Heat Index 131 °F
Dew Point 89 °F
Humidity 93%
Rainfall in
Snow Depth Not available.
6:40 AM 5:40 PM
Waxing Crescent, 37% visible
METAR PHTO 060353Z 00000KT 10SM BKN034 BKN046 23/21 A2992 RMK AO2 SLP131 T02280206

10-Day Weather Forecast

Almanac

Astronomy

Dec. 05, 2016 Rise Set
Actual Time
Civil Twilight
Nautical Twilight
Astronomical Twilight
Moon
Length of Visible Light
Length of Day
Tomorrow will be .
, % of the Moon is Illuminated

Today's Extremes

State Highs State Lows

Community

WunderPhotos

Upload Photos

1,955,917 photos uploaded!

WunderBlog® & News

Nearby

Air Quality

  Air Quality AQ Index Pollutant
Not available.

Snow Depth

Station Depth Elevation

Earthquake Activity

City Distance Mag. Time & Date
Minimum magnitude displayed is 2.5.

Coastal Water Temperatures

Place Temperature

Stations

Nearby Weather Stations

Station Location Temp. Windchill Dew Point Humidity Wind Precip. Elev Updated Type
                   

Watches & Warnings

There are currently no watches in effect.